createdAt,value
2019-02-24T00:00:18.372Z,1040.17
2019-02-24T00:01:18.619Z,1040.19
2019-02-24T00:02:17.664Z,1040.22
2019-02-24T00:03:17.956Z,1040.24
2019-02-24T00:04:17.998Z,1040.22
2019-02-24T00:05:18.677Z,1040.21
2019-02-24T00:06:17.766Z,1040.26
2019-02-24T00:07:18.297Z,1040.22
2019-02-24T00:08:18.023Z,1040.21
2019-02-24T00:09:18.104Z,1040.19
2019-02-24T00:10:17.674Z,1040.21
2019-02-24T00:11:19.055Z,1040.17
2019-02-24T00:12:17.983Z,1040.2
2019-02-24T00:13:17.695Z,1040.15
2019-02-24T00:14:18.158Z,1040.17
2019-02-24T00:15:19.717Z,1040.16
2019-02-24T00:16:19.224Z,1040.17
2019-02-24T00:17:19.691Z,1040.18
2019-02-24T00:18:17.802Z,1040.09
2019-02-24T00:19:19.614Z,1040.11
2019-02-24T00:20:17.938Z,1040.13
2019-02-24T00:21:19.758Z,1040.09
2019-02-24T00:22:17.744Z,1040.12
2019-02-24T00:23:18.008Z,1040.1
2019-02-24T00:24:18.021Z,1040.07
2019-02-24T00:25:17.754Z,1040.07
2019-02-24T00:26:17.957Z,1040.07
2019-02-24T00:27:17.856Z,1040.07
2019-02-24T00:28:18.274Z,1040.07
2019-02-24T00:29:17.849Z,1040.07
2019-02-24T00:30:17.691Z,1040.07
2019-02-24T00:31:19.626Z,1040.04
2019-02-24T00:32:18.308Z,1040.03
2019-02-24T00:33:17.743Z,1040.02
2019-02-24T00:34:17.834Z,1040.03
2019-02-24T00:35:18.722Z,1040.02
2019-02-24T00:36:17.797Z,1040.01
2019-02-24T00:37:18.029Z,1040.01
2019-02-24T00:38:18.550Z,1040.03
2019-02-24T00:39:18.641Z,1040.01
2019-02-24T00:40:17.761Z,1039.98
2019-02-24T00:41:18.273Z,1040
2019-02-24T00:42:18.028Z,1040.01
2019-02-24T00:43:19.632Z,1040.01
2019-02-24T00:44:19.691Z,1040.03
2019-02-24T00:45:17.678Z,1040.02
2019-02-24T00:46:17.852Z,1039.98
2019-02-24T00:47:17.893Z,1039.99
2019-02-24T00:48:18.033Z,1039.98
2019-02-24T00:49:18.212Z,1039.96
2019-02-24T00:50:17.806Z,1040
2019-02-24T00:51:17.715Z,1039.99
2019-02-24T00:52:17.994Z,1039.98
2019-02-24T00:53:18.374Z,1039.96
2019-02-24T00:54:17.670Z,1039.96
2019-02-24T00:55:17.953Z,1039.94
2019-02-24T00:56:17.626Z,1039.95
2019-02-24T00:57:18.058Z,1039.92
2019-02-24T00:58:17.929Z,1039.93
2019-02-24T00:59:18.528Z,1039.9
2019-02-24T01:00:18.787Z,1039.89
2019-02-24T01:01:18.788Z,1039.85
2019-02-24T01:02:19.090Z,1039.82
2019-02-24T01:03:17.783Z,1039.81
2019-02-24T01:04:18.594Z,1039.84
2019-02-24T01:05:17.897Z,1039.8
2019-02-24T01:06:19.702Z,1039.83
2019-02-24T01:07:18.024Z,1039.86
2019-02-24T01:08:17.782Z,1039.79
2019-02-24T01:09:18.337Z,1039.82
2019-02-24T01:10:17.636Z,1039.81
2019-02-24T01:11:17.943Z,1039.75
2019-02-24T01:12:18.265Z,1039.79
2019-02-24T01:13:17.688Z,1039.75
2019-02-24T01:14:19.598Z,1039.77
2019-02-24T01:15:18.288Z,1039.73
2019-02-24T01:16:17.672Z,1039.72
2019-02-24T01:17:17.695Z,1039.74
2019-02-24T01:18:18.122Z,1039.71
2019-02-24T01:19:17.744Z,1039.67
2019-02-24T01:20:17.905Z,1039.68
2019-02-24T01:21:17.681Z,1039.64
2019-02-24T01:22:18.625Z,1039.64
2019-02-24T01:23:18.093Z,1039.61
2019-02-24T01:24:17.831Z,1039.6
2019-02-24T01:25:17.623Z,1039.6
2019-02-24T01:26:17.655Z,1039.58
2019-02-24T01:27:17.964Z,1039.6
2019-02-24T01:28:25.756Z,1039.57
2019-02-24T01:29:18.073Z,1039.62
2019-02-24T01:30:17.609Z,1039.62
2019-02-24T01:31:17.891Z,1039.6
2019-02-24T01:32:17.996Z,1039.6
2019-02-24T01:33:17.774Z,1039.62
2019-02-24T01:34:18.129Z,1039.59
2019-02-24T01:35:17.739Z,1039.6
2019-02-24T01:36:18.049Z,1039.6
2019-02-24T01:37:18.983Z,1039.57
2019-02-24T01:38:18.248Z,1039.6
2019-02-24T01:39:17.734Z,1039.58
2019-02-24T01:40:18.573Z,1039.55
2019-02-24T01:41:17.883Z,1039.54
2019-02-24T01:42:17.729Z,1039.54
2019-02-24T01:43:17.782Z,1039.53
2019-02-24T01:44:19.552Z,1039.54
2019-02-24T01:45:19.579Z,1039.55
2019-02-24T01:46:17.701Z,1039.51
2019-02-24T01:47:17.571Z,1039.51
2019-02-24T01:48:17.641Z,1039.51
2019-02-24T01:49:17.468Z,1039.53
2019-02-24T01:50:17.914Z,1039.54
2019-02-24T01:51:18.129Z,1039.54
2019-02-24T01:52:17.962Z,1039.53
2019-02-24T01:53:17.964Z,1039.58
2019-02-24T01:54:18.052Z,1039.54
2019-02-24T01:55:17.714Z,1039.58
2019-02-24T01:56:17.965Z,1039.53
2019-02-24T01:57:18.087Z,1039.58
2019-02-24T01:58:17.685Z,1039.58
2019-02-24T01:59:18.088Z,1039.59
2019-02-24T02:00:18.653Z,1039.59
2019-02-24T02:01:17.738Z,1039.62
2019-02-24T02:02:18.020Z,1039.6
2019-02-24T02:03:17.684Z,1039.6
2019-02-24T02:04:18.659Z,1039.6
2019-02-24T02:05:19.057Z,1039.56
2019-02-24T02:06:18.439Z,1039.57
2019-02-24T02:07:19.195Z,1039.53
2019-02-24T02:08:17.711Z,1039.49
2019-02-24T02:09:18.057Z,1039.52
2019-02-24T02:10:18.264Z,1039.5
2019-02-24T02:11:17.883Z,1039.5
2019-02-24T02:12:19.607Z,1039.52
2019-02-24T02:13:17.825Z,1039.55
2019-02-24T02:14:18.087Z,1039.55
2019-02-24T02:15:17.931Z,1039.51
2019-02-24T02:16:18.626Z,1039.51
2019-02-24T02:17:17.909Z,1039.53
2019-02-24T02:18:17.941Z,1039.49
2019-02-24T02:19:17.846Z,1039.5
2019-02-24T02:20:18.026Z,1039.5
2019-02-24T02:21:17.918Z,1039.54
2019-02-24T02:22:18.572Z,1039.54
2019-02-24T02:23:17.690Z,1039.53
2019-02-24T02:24:19.678Z,1039.5
2019-02-24T02:25:17.859Z,1039.52
2019-02-24T02:26:17.625Z,1039.5
2019-02-24T02:27:18.823Z,1039.5
2019-02-24T02:28:17.874Z,1039.5
2019-02-24T02:29:17.773Z,1039.5
2019-02-24T02:30:17.884Z,1039.5
2019-02-24T02:31:17.850Z,1039.49
2019-02-24T02:32:17.908Z,1039.45
2019-02-24T02:33:17.689Z,1039.47
2019-02-24T02:34:19.016Z,1039.48
2019-02-24T02:35:17.788Z,1039.46
2019-02-24T02:36:18.049Z,1039.43
2019-02-24T02:37:17.979Z,1039.43
2019-02-24T02:38:18.121Z,1039.42
2019-02-24T02:39:18.040Z,1039.41
2019-02-24T02:40:17.871Z,1039.44
2019-02-24T02:41:17.790Z,1039.44
2019-02-24T02:42:18.011Z,1039.42
2019-02-24T02:43:19.606Z,1039.44
2019-02-24T02:44:18.001Z,1039.45
2019-02-24T02:45:18.084Z,1039.47
2019-02-24T02:46:17.932Z,1039.44
2019-02-24T02:47:18.353Z,1039.47
2019-02-24T02:48:18.222Z,1039.48
2019-02-24T02:49:18.887Z,1039.48
2019-02-24T02:50:19.705Z,1039.46
2019-02-24T02:51:17.668Z,1039.51
2019-02-24T02:52:17.851Z,1039.49
2019-02-24T02:53:17.889Z,1039.49
2019-02-24T02:54:17.713Z,1039.49
2019-02-24T02:55:17.749Z,1039.47
2019-02-24T02:56:18.324Z,1039.48
2019-02-24T02:57:17.682Z,1039.47
2019-02-24T02:58:18.029Z,1039.5
2019-02-24T02:59:17.765Z,1039.48
2019-02-24T03:00:18.005Z,1039.5
2019-02-24T03:01:19.676Z,1039.49
2019-02-24T03:02:24.952Z,1039.47
2019-02-24T03:03:17.854Z,1039.45
2019-02-24T03:04:17.789Z,1039.47
2019-02-24T03:05:17.868Z,1039.44
2019-02-24T03:06:17.605Z,1039.42
2019-02-24T03:07:17.788Z,1039.43
2019-02-24T03:08:17.794Z,1039.41
2019-02-24T03:09:18.005Z,1039.45
2019-02-24T03:10:18.900Z,1039.46
2019-02-24T03:11:17.685Z,1039.43
2019-02-24T03:12:17.806Z,1039.42
2019-02-24T03:13:17.784Z,1039.47
2019-02-24T03:14:18.343Z,1039.44
2019-02-24T03:15:17.783Z,1039.49
2019-02-24T03:16:18.170Z,1039.49
2019-02-24T03:17:18.073Z,1039.52
2019-02-24T03:18:17.776Z,1039.47
2019-02-24T03:19:18.057Z,1039.51
2019-02-24T03:20:17.954Z,1039.52
2019-02-24T03:21:17.975Z,1039.52
2019-02-24T03:22:17.736Z,1039.5
2019-02-24T03:23:18.103Z,1039.52
2019-02-24T03:24:17.993Z,1039.5
2019-02-24T03:25:17.990Z,1039.5
2019-02-24T03:26:19.533Z,1039.51
2019-02-24T03:27:19.580Z,1039.48
2019-02-24T03:28:17.747Z,1039.54
2019-02-24T03:29:17.949Z,1039.5
2019-02-24T03:30:17.612Z,1039.53
2019-02-24T03:31:19.483Z,1039.52
2019-02-24T03:32:18.674Z,1039.5
2019-02-24T03:33:18.382Z,1039.46
2019-02-24T03:34:17.963Z,1039.47
2019-02-24T03:35:19.634Z,1039.45
2019-02-24T03:36:17.762Z,1039.45
2019-02-24T03:37:18.047Z,1039.44
2019-02-24T03:38:19.647Z,1039.4
2019-02-24T03:39:17.684Z,1039.44
2019-02-24T03:40:17.685Z,1039.42
2019-02-24T03:41:18.078Z,1039.43
2019-02-24T03:42:18.057Z,1039.45
2019-02-24T03:43:17.711Z,1039.46
2019-02-24T03:44:18.049Z,1039.44
2019-02-24T03:45:17.973Z,1039.48
2019-02-24T03:46:17.736Z,1039.45
2019-02-24T03:47:17.959Z,1039.51
2019-02-24T03:48:17.944Z,1039.53
2019-02-24T03:49:17.947Z,1039.59
2019-02-24T03:50:17.811Z,1039.61
2019-02-24T03:51:17.650Z,1039.63
2019-02-24T03:52:17.690Z,1039.64
2019-02-24T03:53:18.601Z,1039.63
2019-02-24T03:54:17.570Z,1039.62
2019-02-24T03:55:17.599Z,1039.64
2019-02-24T03:56:17.979Z,1039.63
2019-02-24T03:57:18.101Z,1039.65
2019-02-24T03:58:18.006Z,1039.68
2019-02-24T03:59:18.238Z,1039.68
2019-02-24T04:00:17.642Z,1039.64
2019-02-24T04:01:18.070Z,1039.66
2019-02-24T04:02:17.842Z,1039.62
2019-02-24T04:03:17.657Z,1039.62
2019-02-24T04:04:18.144Z,1039.62
2019-02-24T04:05:18.153Z,1039.65
2019-02-24T04:06:17.934Z,1039.64
2019-02-24T04:07:17.985Z,1039.67
2019-02-24T04:08:17.794Z,1039.64
2019-02-24T04:09:17.782Z,1039.67
2019-02-24T04:10:17.927Z,1039.62
2019-02-24T04:11:17.806Z,1039.65
2019-02-24T04:12:17.819Z,1039.67
2019-02-24T04:13:17.676Z,1039.65
2019-02-24T04:14:18.700Z,1039.67
2019-02-24T04:15:18.454Z,1039.68
2019-02-24T04:16:18.069Z,1039.62
2019-02-24T04:17:18.187Z,1039.62
2019-02-24T04:18:17.785Z,1039.66
2019-02-24T04:19:17.774Z,1039.62
2019-02-24T04:20:17.475Z,1039.64
2019-02-24T04:21:19.632Z,1039.61
2019-02-24T04:22:17.797Z,1039.64
2019-02-24T04:23:17.600Z,1039.63
2019-02-24T04:24:17.926Z,1039.6
2019-02-24T04:25:19.509Z,1039.58
2019-02-24T04:26:17.746Z,1039.56
2019-02-24T04:27:18.115Z,1039.59
2019-02-24T04:28:17.653Z,1039.58
2019-02-24T04:29:25.480Z,1039.55
2019-02-24T04:30:17.774Z,1039.58
2019-02-24T04:31:17.835Z,1039.58
2019-02-24T04:32:17.916Z,1039.56
2019-02-24T04:33:17.734Z,1039.57
2019-02-24T04:34:17.861Z,1039.57
2019-02-24T04:35:18.128Z,1039.61
2019-02-24T04:36:18.293Z,1039.6
2019-02-24T04:37:18.083Z,1039.61
2019-02-24T04:38:17.892Z,1039.65
2019-02-24T04:39:17.915Z,1039.63
2019-02-24T04:40:18.052Z,1039.64
2019-02-24T04:41:18.031Z,1039.65
2019-02-24T04:42:17.847Z,1039.65
2019-02-24T04:43:17.809Z,1039.69
2019-02-24T04:44:17.946Z,1039.68
2019-02-24T04:45:17.883Z,1039.66
2019-02-24T04:46:18.390Z,1039.7
2019-02-24T04:47:17.963Z,1039.7
2019-02-24T04:48:17.866Z,1039.71
2019-02-24T04:49:17.632Z,1039.78
2019-02-24T04:50:17.787Z,1039.75
2019-02-24T04:51:17.981Z,1039.76
2019-02-24T04:52:17.690Z,1039.78
2019-02-24T04:53:18.669Z,1039.83
2019-02-24T04:54:17.644Z,1039.79
2019-02-24T04:55:17.657Z,1039.75
2019-02-24T04:56:18.034Z,1039.77
2019-02-24T04:57:18.675Z,1039.72
2019-02-24T04:58:18.824Z,1039.72
2019-02-24T04:59:18.271Z,1039.67
2019-02-24T05:00:17.662Z,1039.68
2019-02-24T05:01:17.711Z,1039.65
2019-02-24T05:02:17.704Z,1039.62
2019-02-24T05:03:17.698Z,1039.63
2019-02-24T05:04:19.580Z,1039.61
2019-02-24T05:05:17.829Z,1039.58
2019-02-24T05:06:19.525Z,1039.56
2019-02-24T05:07:18.014Z,1039.54
2019-02-24T05:08:18.019Z,1039.5
2019-02-24T05:09:18.835Z,1039.49
2019-02-24T05:10:18.038Z,1039.49
2019-02-24T05:11:18.133Z,1039.46
2019-02-24T05:12:18.337Z,1039.48
2019-02-24T05:13:17.773Z,1039.45
2019-02-24T05:14:17.633Z,1039.47
2019-02-24T05:15:19.519Z,1039.45
2019-02-24T05:16:17.955Z,1039.45
2019-02-24T05:17:17.873Z,1039.45
2019-02-24T05:18:17.591Z,1039.43
2019-02-24T05:19:18.577Z,1039.42
2019-02-24T05:20:18.646Z,1039.45
2019-02-24T05:21:18.004Z,1039.45
2019-02-24T05:22:17.806Z,1039.48
2019-02-24T05:23:17.832Z,1039.51
2019-02-24T05:24:17.727Z,1039.47
2019-02-24T05:25:18.019Z,1039.51
2019-02-24T05:26:18.027Z,1039.49
2019-02-24T05:27:17.954Z,1039.52
2019-02-24T05:28:18.451Z,1039.51
2019-02-24T05:29:20.713Z,1039.49
2019-02-24T05:30:18.008Z,1039.51
2019-02-24T05:31:17.752Z,1039.53
2019-02-24T05:32:17.780Z,1039.51
2019-02-24T05:33:17.769Z,1039.55
2019-02-24T05:34:17.786Z,1039.55
2019-02-24T05:35:17.627Z,1039.57
2019-02-24T05:36:17.623Z,1039.56
2019-02-24T05:37:17.817Z,1039.64
2019-02-24T05:38:17.949Z,1039.64
2019-02-24T05:39:17.773Z,1039.65
2019-02-24T05:40:18.344Z,1039.7
2019-02-24T05:41:19.537Z,1039.68
2019-02-24T05:42:17.949Z,1039.73
2019-02-24T05:43:17.601Z,1039.7
2019-02-24T05:44:17.639Z,1039.73
2019-02-24T05:45:17.800Z,1039.73
2019-02-24T05:46:17.707Z,1039.77
2019-02-24T05:47:18.058Z,1039.76
2019-02-24T05:48:17.935Z,1039.79
2019-02-24T05:49:17.806Z,1039.78
2019-02-24T05:50:17.915Z,1039.75
2019-02-24T05:51:18.541Z,1039.75
2019-02-24T05:52:19.446Z,1039.75
2019-02-24T05:53:17.688Z,1039.73
2019-02-24T05:54:17.945Z,1039.75
2019-02-24T05:55:17.630Z,1039.77
2019-02-24T05:56:17.773Z,1039.81
2019-02-24T05:57:17.582Z,1039.74
2019-02-24T05:58:17.586Z,1039.79
2019-02-24T05:59:17.958Z,1039.77
2019-02-24T06:00:18.008Z,1039.79
2019-02-24T06:01:20.164Z,1039.83
2019-02-24T06:02:18.310Z,1039.84
2019-02-24T06:03:19.419Z,1039.86
2019-02-24T06:04:17.732Z,1039.87
2019-02-24T06:05:17.694Z,1039.85
2019-02-24T06:06:18.240Z,1039.87
2019-02-24T06:07:18.028Z,1039.85
2019-02-24T06:08:18.041Z,1039.87
2019-02-24T06:09:17.558Z,1039.9
2019-02-24T06:10:19.510Z,1039.94
2019-02-24T06:11:17.786Z,1039.98
2019-02-24T06:12:17.622Z,1039.99
2019-02-24T06:13:17.852Z,1040.03
2019-02-24T06:14:17.769Z,1040.01
2019-02-24T06:15:18.097Z,1040.07
2019-02-24T06:16:17.795Z,1040.09
2019-02-24T06:17:17.780Z,1040.07
2019-02-24T06:18:17.604Z,1040.1
2019-02-24T06:19:17.866Z,1040.1
2019-02-24T06:20:17.675Z,1040.09
2019-02-24T06:21:17.817Z,1040.14
2019-02-24T06:22:19.526Z,1040.15
2019-02-24T06:23:18.599Z,1040.13
2019-02-24T06:24:18.476Z,1040.17
2019-02-24T06:25:17.833Z,1040.18
2019-02-24T06:26:18.379Z,1040.2
2019-02-24T06:27:17.846Z,1040.24
2019-02-24T06:28:17.802Z,1040.22
2019-02-24T06:29:17.743Z,1040.25
2019-02-24T06:30:18.094Z,1040.24
2019-02-24T06:31:17.779Z,1040.22
2019-02-24T06:32:17.810Z,1040.25
2019-02-24T06:33:18.000Z,1040.22
2019-02-24T06:34:18.165Z,1040.27
2019-02-24T06:35:17.658Z,1040.33
2019-02-24T06:36:18.282Z,1040.29
2019-02-24T06:37:17.569Z,1040.32
2019-02-24T06:38:18.141Z,1040.37
2019-02-24T06:39:17.842Z,1040.34
2019-02-24T06:40:17.979Z,1040.35
2019-02-24T06:41:18.074Z,1040.39
2019-02-24T06:42:18.049Z,1040.37
2019-02-24T06:43:17.940Z,1040.33
2019-02-24T06:44:17.776Z,1040.34
2019-02-24T06:45:18.590Z,1040.35
2019-02-24T06:46:18.024Z,1040.33
2019-02-24T06:47:18.018Z,1040.33
2019-02-24T06:48:19.380Z,1040.33
2019-02-24T06:49:17.498Z,1040.33
2019-02-24T06:50:17.607Z,1040.31
2019-02-24T06:51:17.464Z,1040.33
2019-02-24T06:52:17.556Z,1040.31
2019-02-24T06:53:17.771Z,1040.35
2019-02-24T06:54:18.589Z,1040.35
2019-02-24T06:55:18.070Z,1040.45
2019-02-24T06:56:18.091Z,1040.41
2019-02-24T06:57:17.786Z,1040.47
2019-02-24T06:58:18.710Z,1040.5
2019-02-24T06:59:17.890Z,1040.5
2019-02-24T07:00:17.950Z,1040.52
2019-02-24T07:01:18.105Z,1040.48
2019-02-24T07:02:18.117Z,1040.54
2019-02-24T07:03:17.685Z,1040.55
2019-02-24T07:04:18.678Z,1040.56
2019-02-24T07:05:18.234Z,1040.53
2019-02-24T07:06:18.093Z,1040.54
2019-02-24T07:07:19.355Z,1040.51
2019-02-24T07:08:17.848Z,1040.54
2019-02-24T07:09:19.298Z,1040.51
2019-02-24T07:10:18.370Z,1040.5
2019-02-24T07:11:17.989Z,1040.5
2019-02-24T07:12:17.739Z,1040.55
2019-02-24T07:13:17.773Z,1040.54
2019-02-24T07:14:17.706Z,1040.55
2019-02-24T07:15:19.399Z,1040.54
2019-02-24T07:16:19.433Z,1040.52
2019-02-24T07:17:18.129Z,1040.5
2019-02-24T07:18:17.910Z,1040.55
2019-02-24T07:19:17.715Z,1040.51
2019-02-24T07:20:17.872Z,1040.5
2019-02-24T07:21:18.057Z,1040.45
2019-02-24T07:22:17.856Z,1040.47
2019-02-24T07:23:18.166Z,1040.42
2019-02-24T07:24:17.436Z,1040.36
2019-02-24T07:25:17.517Z,1040.39
2019-02-24T07:26:18.017Z,1040.35
2019-02-24T07:27:18.099Z,1040.37
2019-02-24T07:28:18.894Z,1040.29
2019-02-24T07:29:18.297Z,1040.3
2019-02-24T07:30:24.012Z,1040.27
2019-02-24T07:31:17.698Z,1040.31
2019-02-24T07:32:17.912Z,1040.24
2019-02-24T07:33:17.856Z,1040.28
2019-02-24T07:34:17.950Z,1040.22
2019-02-24T07:35:19.593Z,1040.24
2019-02-24T07:36:17.691Z,1040.19
2019-02-24T07:37:17.852Z,1040.24
2019-02-24T07:38:17.971Z,1040.15
2019-02-24T07:39:17.593Z,1040.17
2019-02-24T07:40:17.680Z,1040.18
2019-02-24T07:41:17.637Z,1040.24
2019-02-24T07:42:17.693Z,1040.21
2019-02-24T07:43:18.094Z,1040.23
2019-02-24T07:44:19.586Z,1040.2
2019-02-24T07:45:17.912Z,1040.21
2019-02-24T07:46:18.135Z,1040.24
2019-02-24T07:47:17.849Z,1040.25
2019-02-24T07:48:17.764Z,1040.25
2019-02-24T07:49:18.803Z,1040.27
2019-02-24T07:50:18.750Z,1040.23
2019-02-24T07:51:17.857Z,1040.24
2019-02-24T07:52:19.507Z,1040.26
2019-02-24T07:53:17.384Z,1040.27
2019-02-24T07:54:17.879Z,1040.3
2019-02-24T07:55:17.877Z,1040.31
2019-02-24T07:56:17.775Z,1040.35
2019-02-24T07:57:17.787Z,1040.38
2019-02-24T07:58:17.720Z,1040.41
2019-02-24T07:59:17.599Z,1040.4
2019-02-24T08:00:17.779Z,1040.38
2019-02-24T08:01:17.840Z,1040.43
2019-02-24T08:02:17.571Z,1040.39
2019-02-24T08:03:17.940Z,1040.35
2019-02-24T08:04:18.021Z,1040.34
2019-02-24T08:05:18.256Z,1040.32
2019-02-24T08:06:18.149Z,1040.32
2019-02-24T08:07:17.650Z,1040.33
2019-02-24T08:08:18.087Z,1040.35
2019-02-24T08:09:17.663Z,1040.31
2019-02-24T08:10:17.680Z,1040.32
2019-02-24T08:11:18.256Z,1040.32
2019-02-24T08:12:19.553Z,1040.31
2019-02-24T08:13:17.660Z,1040.38
2019-02-24T08:14:17.733Z,1040.38
2019-02-24T08:15:17.701Z,1040.35
2019-02-24T08:16:17.765Z,1040.35
2019-02-24T08:17:17.686Z,1040.35
2019-02-24T08:18:17.675Z,1040.32
2019-02-24T08:19:17.754Z,1040.33
2019-02-24T08:20:17.971Z,1040.31
2019-02-24T08:21:17.566Z,1040.31
2019-02-24T08:22:17.616Z,1040.32
2019-02-24T08:23:17.889Z,1040.35
2019-02-24T08:24:17.882Z,1040.31
2019-02-24T08:25:17.513Z,1040.34
2019-02-24T08:26:17.924Z,1040.29
2019-02-24T08:27:17.795Z,1040.29
2019-02-24T08:28:17.952Z,1040.35
2019-02-24T08:29:17.714Z,1040.32
2019-02-24T08:30:17.718Z,1040.37
2019-02-24T08:31:17.652Z,1040.32
2019-02-24T08:32:17.736Z,1040.3
2019-02-24T08:33:18.029Z,1040.32
2019-02-24T08:34:17.865Z,1040.27
2019-02-24T08:35:17.749Z,1040.28
2019-02-24T08:36:17.658Z,1040.31
2019-02-24T08:37:19.374Z,1040.3
2019-02-24T08:38:17.640Z,1040.28
2019-02-24T08:39:18.324Z,1040.31
2019-02-24T08:40:17.982Z,1040.3
2019-02-24T08:41:17.768Z,1040.29
2019-02-24T08:42:17.792Z,1040.29
2019-02-24T08:43:18.020Z,1040.26
2019-02-24T08:44:18.308Z,1040.25
2019-02-24T08:45:17.872Z,1040.23
2019-02-24T08:46:17.961Z,1040.26
2019-02-24T08:47:17.774Z,1040.24
2019-02-24T08:48:19.501Z,1040.26
2019-02-24T08:49:17.881Z,1040.23
2019-02-24T08:50:17.680Z,1040.3
2019-02-24T08:51:17.661Z,1040.37
2019-02-24T08:52:17.789Z,1040.33
2019-02-24T08:53:17.727Z,1040.32
2019-02-24T08:54:18.104Z,1040.4
2019-02-24T08:55:18.897Z,1040.36
2019-02-24T08:56:17.709Z,1040.38
2019-02-24T08:57:17.838Z,1040.35
2019-02-24T08:58:18.148Z,1040.35
2019-02-24T08:59:17.946Z,1040.38
2019-02-24T09:00:17.875Z,1040.36
2019-02-24T09:01:18.036Z,1040.36
2019-02-24T09:02:18.135Z,1040.34
2019-02-24T09:03:17.714Z,1040.31
2019-02-24T09:04:17.790Z,1040.37
2019-02-24T09:05:17.997Z,1040.35
2019-02-24T09:06:17.972Z,1040.36
2019-02-24T09:07:17.907Z,1040.39
2019-02-24T09:08:17.895Z,1040.33
2019-02-24T09:09:17.789Z,1040.38
2019-02-24T09:10:17.876Z,1040.43
2019-02-24T09:11:19.423Z,1040.4
2019-02-24T09:12:17.830Z,1040.43
2019-02-24T09:13:17.724Z,1040.42
2019-02-24T09:14:17.764Z,1040.34
2019-02-24T09:15:17.611Z,1040.35
2019-02-24T09:16:18.396Z,1040.32
2019-02-24T09:17:17.562Z,1040.32
2019-02-24T09:18:17.957Z,1040.27
2019-02-24T09:19:17.555Z,1040.21
2019-02-24T09:20:17.596Z,1040.24
2019-02-24T09:21:18.085Z,1040.22
2019-02-24T09:22:17.686Z,1040.2
2019-02-24T09:23:19.460Z,1040.19
2019-02-24T09:24:17.570Z,1040.23
2019-02-24T09:25:17.804Z,1040.23
2019-02-24T09:26:17.608Z,1040.23
2019-02-24T09:27:18.560Z,1040.24
2019-02-24T09:28:17.718Z,1040.23
2019-02-24T09:29:17.930Z,1040.3
2019-02-24T09:30:17.720Z,1040.28
2019-02-24T09:31:17.844Z,1040.24
2019-02-24T09:32:17.736Z,1040.27
2019-02-24T09:33:17.862Z,1040.25
2019-02-24T09:34:18.001Z,1040.29
2019-02-24T09:35:17.788Z,1040.31
2019-02-24T09:36:17.791Z,1040.29
2019-02-24T09:37:18.143Z,1040.3
2019-02-24T09:38:19.499Z,1040.31
2019-02-24T09:39:17.413Z,1040.34
2019-02-24T09:40:17.738Z,1040.4
2019-02-24T09:41:17.619Z,1040.39
2019-02-24T09:42:18.339Z,1040.36
2019-02-24T09:43:17.848Z,1040.37
2019-02-24T09:44:17.608Z,1040.32
2019-02-24T09:45:17.778Z,1040.34
2019-02-24T09:46:19.179Z,1040.34
2019-02-24T09:47:18.326Z,1040.29
2019-02-24T09:48:17.781Z,1040.26
2019-02-24T09:49:18.466Z,1040.32
2019-02-24T09:50:17.658Z,1040.31
2019-02-24T09:51:17.461Z,1040.31
2019-02-24T09:52:17.611Z,1040.28
2019-02-24T09:53:17.659Z,1040.31
2019-02-24T09:54:17.352Z,1040.33
2019-02-24T09:55:17.645Z,1040.29
2019-02-24T09:56:17.721Z,1040.32
2019-02-24T09:57:17.415Z,1040.25
2019-02-24T09:58:17.753Z,1040.27
2019-02-24T09:59:18.995Z,1040.22
2019-02-24T10:00:17.645Z,1040.25
2019-02-24T10:01:17.974Z,1040.21
2019-02-24T10:02:17.511Z,1040.2
2019-02-24T10:03:17.908Z,1040.17
2019-02-24T10:04:17.779Z,1040.2
2019-02-24T10:05:17.782Z,1040.18
2019-02-24T10:06:17.898Z,1040.16
2019-02-24T10:07:17.773Z,1040.17
2019-02-24T10:08:17.760Z,1040.13
2019-02-24T10:09:17.837Z,1040.16
2019-02-24T10:10:18.160Z,1040.16
2019-02-24T10:11:17.723Z,1040.17
2019-02-24T10:12:17.657Z,1040.19
2019-02-24T10:13:19.578Z,1040.22
2019-02-24T10:14:17.779Z,1040.22
2019-02-24T10:15:17.561Z,1040.24
2019-02-24T10:16:18.079Z,1040.22
2019-02-24T10:17:17.500Z,1040.26
2019-02-24T10:18:17.877Z,1040.28
2019-02-24T10:19:17.421Z,1040.28
2019-02-24T10:20:17.857Z,1040.29
2019-02-24T10:21:18.403Z,1040.31
2019-02-24T10:22:17.543Z,1040.25
2019-02-24T10:23:18.007Z,1040.3
2019-02-24T10:24:17.838Z,1040.29
2019-02-24T10:25:17.629Z,1040.26
2019-02-24T10:26:17.940Z,1040.27
2019-02-24T10:27:17.650Z,1040.3
2019-02-24T10:28:17.838Z,1040.29
2019-02-24T10:29:19.283Z,1040.28
2019-02-24T10:30:17.792Z,1040.25
2019-02-24T10:31:20.429Z,1040.22
2019-02-24T10:32:19.279Z,1040.22
2019-02-24T10:33:17.933Z,1040.24
2019-02-24T10:34:17.631Z,1040.22
2019-02-24T10:35:17.393Z,1040.23
2019-02-24T10:36:17.755Z,1040.21
2019-02-24T10:37:17.917Z,1040.16
2019-02-24T10:38:17.731Z,1040.16
2019-02-24T10:39:18.563Z,1040.14
2019-02-24T10:40:17.598Z,1040.12
2019-02-24T10:41:17.501Z,1040.14
2019-02-24T10:42:17.763Z,1040.09
2019-02-24T10:43:19.491Z,1040.08
2019-02-24T10:44:17.674Z,1040.08
2019-02-24T10:45:17.761Z,1040.11
2019-02-24T10:46:17.790Z,1040.1
2019-02-24T10:47:17.617Z,1040.07
2019-02-24T10:48:17.999Z,1040.11
2019-02-24T10:49:17.453Z,1040.11
2019-02-24T10:50:17.702Z,1040.13
2019-02-24T10:51:18.120Z,1040.17
2019-02-24T10:52:17.635Z,1040.15
2019-02-24T10:53:17.568Z,1040.18
2019-02-24T10:54:18.000Z,1040.14
2019-02-24T10:55:17.847Z,1040.14
2019-02-24T10:56:17.738Z,1040.14
2019-02-24T10:57:17.950Z,1040.12
2019-02-24T10:58:17.879Z,1040.12
2019-02-24T10:59:17.807Z,1040.09
2019-02-24T11:00:17.984Z,1040.09
2019-02-24T11:01:17.466Z,1040.12
2019-02-24T11:02:18.427Z,1040.09
2019-02-24T11:03:17.810Z,1040.09
2019-02-24T11:04:17.699Z,1040.06
2019-02-24T11:05:19.373Z,1040.11
2019-02-24T11:06:18.296Z,1040.12
2019-02-24T11:07:18.360Z,1040.1
2019-02-24T11:08:18.057Z,1040.08
2019-02-24T11:09:17.908Z,1040.06
2019-02-24T11:10:17.421Z,1040.05
2019-02-24T11:11:17.850Z,1040.06
2019-02-24T11:12:17.827Z,1040.02
2019-02-24T11:13:17.628Z,1040.05
2019-02-24T11:14:18.548Z,1039.99
2019-02-24T11:15:17.984Z,1039.94
2019-02-24T11:16:18.220Z,1039.98
2019-02-24T11:17:17.771Z,1039.98
2019-02-24T11:18:17.435Z,1039.96
2019-02-24T11:19:17.811Z,1039.97
2019-02-24T11:20:17.677Z,1039.97
2019-02-24T11:21:17.365Z,1039.94
2019-02-24T11:22:18.656Z,1039.88
2019-02-24T11:23:18.127Z,1039.88
2019-02-24T11:24:19.384Z,1039.84
2019-02-24T11:25:17.501Z,1039.83
2019-02-24T11:26:17.925Z,1039.86
2019-02-24T11:27:18.398Z,1039.83
2019-02-24T11:28:17.947Z,1039.84
2019-02-24T11:29:19.949Z,1039.79
2019-02-24T11:30:17.678Z,1039.86
2019-02-24T11:31:19.435Z,1039.83
2019-02-24T11:32:17.985Z,1039.82
2019-02-24T11:33:19.306Z,1039.81
2019-02-24T11:34:17.499Z,1039.82
2019-02-24T11:35:17.704Z,1039.79
2019-02-24T11:36:18.155Z,1039.76
2019-02-24T11:37:17.722Z,1039.77
2019-02-24T11:38:17.642Z,1039.76
2019-02-24T11:39:17.753Z,1039.74
2019-02-24T11:40:17.697Z,1039.74
2019-02-24T11:41:18.598Z,1039.75
2019-02-24T11:42:17.793Z,1039.72
2019-02-24T11:43:18.462Z,1039.7
2019-02-24T11:44:19.282Z,1039.74
2019-02-24T11:45:17.923Z,1039.74
2019-02-24T11:46:19.492Z,1039.72
2019-02-24T11:47:18.363Z,1039.72
2019-02-24T11:48:17.719Z,1039.71
2019-02-24T11:49:18.386Z,1039.74
2019-02-24T11:50:18.036Z,1039.71
2019-02-24T11:51:17.691Z,1039.72
2019-02-24T11:52:18.109Z,1039.71
2019-02-24T11:53:17.550Z,1039.71
2019-02-24T11:54:17.445Z,1039.69
2019-02-24T11:55:17.752Z,1039.62
2019-02-24T11:56:19.831Z,1039.6
2019-02-24T11:57:17.732Z,1039.59
2019-02-24T11:58:17.916Z,1039.54
2019-02-24T11:59:17.420Z,1039.51
2019-02-24T12:00:18.831Z,1039.53
2019-02-24T12:01:17.797Z,1039.51
2019-02-24T12:02:17.415Z,1039.49
2019-02-24T12:03:17.449Z,1039.45
2019-02-24T12:04:17.616Z,1039.46
2019-02-24T12:05:17.724Z,1039.47
2019-02-24T12:06:17.783Z,1039.45
2019-02-24T12:07:17.738Z,1039.41
2019-02-24T12:08:17.820Z,1039.39